Time;durP1;ratioP1;P1;durP2;ratioP2;P2;SDS_P1;SDS_P2;PMS_P1;PMS_P2;Temp;Humidity;BMP_temperature;BMP_pressure;BME280_temperature;BME280_humidity;BME280_pressure;Samples;Min_cycle;Max_cycle;Signal;HPM_P1;HPM_P2
2022/05/16 00:00:44;;;;;;;4.85;1.85;;;19.90;42.50;;;;;;5043245;28;20055;-47
2022/05/16 00:03:12;;;;;;;5.40;2.05;;;19.90;42.40;;;;;;5042070;28;20492;-47
2022/05/16 00:05:39;;;;;;;5.90;2.17;;;19.90;42.40;;;;;;5043519;28;20052;-51
2022/05/16 00:08:07;;;;;;;3.28;1.88;;;19.90;42.60;;;;;;5043387;28;20057;-47
2022/05/16 00:10:36;;;;;;;5.72;1.80;;;19.80;42.60;;;;;;5043733;28;20676;-49
2022/05/16 00:13:04;;;;;;;6.55;2.15;;;19.80;42.70;;;;;;5043158;28;20064;-50
2022/05/16 00:15:32;;;;;;;5.55;1.80;;;19.80;42.70;;;;;;5043264;28;20124;-52
2022/05/16 00:18:00;;;;;;;4.68;2.05;;;19.80;42.80;;;;;;5042108;28;20075;-47
2022/05/16 00:20:27;;;;;;;4.22;1.80;;;19.70;42.70;;;;;;5043171;28;20444;-49
2022/05/16 00:22:55;;;;;;;3.58;1.67;;;19.70;42.70;;;;;;5042305;28;20084;-51
2022/05/16 00:25:23;;;;;;;7.68;2.13;;;19.70;42.80;;;;;;5042990;28;20056;-50
2022/05/16 00:27:52;;;;;;;5.80;1.95;;;19.70;42.80;;;;;;5044178;28;20064;-48
2022/05/16 00:30:21;;;;;;;7.38;2.22;;;19.70;42.90;;;;;;5043227;28;20064;-50
2022/05/16 00:32:49;;;;;;;3.80;1.65;;;19.70;43.00;;;;;;5042099;28;20049;-50
2022/05/16 00:35:19;;;;;;;3.80;1.77;;;19.60;42.90;;;;;;5042811;28;20060;-48
2022/05/16 00:37:46;;;;;;;6.80;1.85;;;19.60;43.10;;;;;;5043343;28;20056;-48
2022/05/16 00:40:15;;;;;;;4.40;1.60;;;19.60;43.10;;;;;;5043512;28;20072;-49
2022/05/16 00:42:43;;;;;;;4.10;1.67;;;19.60;43.20;;;;;;5042229;28;20062;-51
2022/05/16 00:45:15;;;;;;;4.15;1.95;;;19.60;43.20;;;;;;5042552;28;20049;-50
2022/05/16 00:47:42;;;;;;;6.38;2.00;;;19.60;43.40;;;;;;5041598;28;20511;-49
2022/05/16 00:50:12;;;;;;;5.72;1.98;;;19.60;43.40;;;;;;5043663;28;20061;-49
2022/05/16 00:52:44;;;;;;;6.03;2.30;;;19.50;43.40;;;;;;5042639;28;20064;-50
2022/05/16 00:55:15;;;;;;;3.13;1.80;;;19.50;43.50;;;;;;5043902;28;20053;-49
2022/05/16 00:57:48;;;;;;;4.50;2.42;;;19.50;43.50;;;;;;5042543;28;20408;-52
2022/05/16 01:00:19;;;;;;;4.55;1.88;;;19.40;43.50;;;;;;5042697;28;20053;-52
2022/05/16 01:05:34;;;;;;;6.38;2.53;;;19.40;43.70;;;;;;5048506;28;20448;-49
2022/05/16 01:08:05;;;;;;;5.25;1.90;;;19.40;43.60;;;;;;5043274;28;20056;-52
2022/05/16 01:10:34;;;;;;;5.38;2.30;;;19.40;43.80;;;;;;5043366;28;20056;-51
2022/05/16 01:13:03;;;;;;;3.10;1.75;;;19.30;43.80;;;;;;5043322;28;20052;-49
2022/05/16 01:15:36;;;;;;;6.90;2.20;;;19.30;43.80;;;;;;5043868;28;20052;-53
2022/05/16 01:18:05;;;;;;;7.40;2.20;;;19.30;43.90;;;;;;5041445;28;20045;-49
2022/05/16 01:20:48;;;;;;;3.17;1.73;;;19.30;43.90;;;;;;5042013;28;20044;-51
2022/05/16 01:23:21;;;;;;;5.70;2.00;;;19.30;44.10;;;;;;5023655;28;20063;-52
2022/05/16 01:25:50;;;;;;;4.20;2.15;;;19.30;44.10;;;;;;5043610;28;20049;-50
2022/05/16 01:28:19;;;;;;;6.93;2.50;;;19.30;44.20;;;;;;5043536;28;20062;-50
2022/05/16 01:30:47;;;;;;;5.57;2.08;;;19.20;44.30;;;;;;5042295;28;20057;-51
2022/05/16 01:33:14;;;;;;;5.50;2.78;;;19.20;44.30;;;;;;5040735;28;20049;-52
2022/05/16 01:35:42;;;;;;;6.07;2.08;;;19.20;44.40;;;;;;5042143;28;20045;-51
2022/05/16 01:38:22;;;;;;;4.35;2.08;;;19.20;44.50;;;;;;5039503;28;20055;-51
2022/05/16 01:40:54;;;;;;;5.32;1.92;;;19.20;44.50;;;;;;5042739;28;20562;-50
2022/05/16 01:43:24;;;;;;;6.57;2.38;;;19.20;44.40;;;;;;5041815;28;20053;-54
2022/05/16 01:45:52;;;;;;;6.85;2.65;;;19.20;44.50;;;;;;5041570;28;20531;-53
2022/05/16 01:48:20;;;;;;;7.53;2.15;;;19.20;44.60;;;;;;5041448;28;20403;-52
2022/05/16 01:50:50;;;;;;;5.90;2.10;;;19.20;44.70;;;;;;5040882;28;20060;-50
2022/05/16 01:53:18;;;;;;;6.30;1.88;;;19.20;44.70;;;;;;5040537;28;20430;-50
2022/05/16 01:55:46;;;;;;;6.22;1.95;;;19.20;44.60;;;;;;5042269;28;20489;-51
2022/05/16 01:58:15;;;;;;;4.00;1.90;;;19.10;44.50;;;;;;5041913;28;20049;-49
2022/05/16 02:00:42;;;;;;;7.43;2.92;;;19.10;44.60;;;;;;5041785;28;20068;-51
2022/05/16 02:03:10;;;;;;;4.03;2.03;;;19.10;44.80;;;;;;5039999;28;20061;-50
2022/05/16 02:05:38;;;;;;;6.18;2.05;;;19.10;44.70;;;;;;5041910;28;20060;-53
2022/05/16 02:08:07;;;;;;;7.40;2.13;;;19.10;44.60;;;;;;5042796;28;20052;-53
2022/05/16 02:10:35;;;;;;;4.35;2.00;;;19.10;44.70;;;;;;5042172;28;20419;-52
2022/05/16 02:13:03;;;;;;;6.10;2.00;;;19.10;44.70;;;;;;5043090;28;20060;-51
2022/05/16 02:15:34;;;;;;;4.95;1.95;;;19.10;44.70;;;;;;5042029;28;20516;-50
2022/05/16 02:18:02;;;;;;;6.15;2.13;;;19.10;44.70;;;;;;5040633;28;20060;-53
2022/05/16 02:20:29;;;;;;;4.10;2.42;;;19.10;44.60;;;;;;5042183;28;20053;-50
2022/05/16 02:25:54;;;;;;;6.00;2.20;;;19.10;44.80;;;;;;4963102;28;20050;-52
2022/05/16 02:28:22;;;;;;;6.90;2.05;;;19.10;44.80;;;;;;5024479;28;20061;-48
2022/05/16 02:30:53;;;;;;;3.95;2.00;;;19.10;44.90;;;;;;5048041;28;20072;-49
2022/05/16 02:33:21;;;;;;;9.20;2.95;;;19.10;44.90;;;;;;5044465;28;20057;-49
2022/05/16 02:35:49;;;;;;;4.63;2.05;;;19.10;44.90;;;;;;5046811;28;20056;-51
2022/05/16 02:38:19;;;;;;;4.78;2.28;;;19.10;45.00;;;;;;5046815;28;20568;-51
2022/05/16 02:40:46;;;;;;;5.32;2.30;;;19.00;45.00;;;;;;5045334;28;20048;-50
2022/05/16 02:43:13;;;;;;;4.25;1.63;;;19.00;45.00;;;;;;5046577;28;20057;-49
2022/05/16 02:45:41;;;;;;;5.60;2.13;;;19.00;45.10;;;;;;5044779;28;20661;-49
2022/05/16 02:48:10;;;;;;;7.63;2.53;;;19.00;45.10;;;;;;5044667;28;20049;-51
2022/05/16 02:50:38;;;;;;;4.70;1.60;;;19.00;45.10;;;;;;5046205;28;20064;-50
2022/05/16 02:53:07;;;;;;;3.90;1.88;;;19.00;45.10;;;;;;5045397;28;20520;-49
2022/05/16 02:55:34;;;;;;;3.60;2.10;;;19.00;45.20;;;;;;5046376;28;20373;-52
2022/05/16 02:58:02;;;;;;;6.47;2.30;;;19.00;45.30;;;;;;5046012;28;20412;-52
2022/05/16 03:00:29;;;;;;;6.55;2.30;;;19.00;45.30;;;;;;5045971;28;20055;-50
2022/05/16 03:02:57;;;;;;;4.57;2.28;;;19.00;45.40;;;;;;5044937;28;20056;-48
2022/05/16 03:05:26;;;;;;;4.00;2.03;;;18.90;45.40;;;;;;5045131;28;20401;-51
2022/05/16 03:07:53;;;;;;;5.25;2.13;;;18.90;45.50;;;;;;5044942;28;20052;-48
2022/05/16 03:10:21;;;;;;;6.75;2.80;;;18.90;45.50;;;;;;5045124;28;20556;-50
2022/05/16 03:12:49;;;;;;;8.10;2.97;;;18.80;45.50;;;;;;5043637;28;20061;-50
2022/05/16 03:15:17;;;;;;;5.63;2.20;;;18.80;45.60;;;;;;5044966;28;20056;-48
2022/05/16 03:17:44;;;;;;;4.25;2.13;;;18.80;45.50;;;;;;5042852;28;20056;-50
2022/05/16 03:20:15;;;;;;;4.50;2.03;;;18.80;45.60;;;;;;5045862;28;20060;-53
2022/05/16 03:22:44;;;;;;;6.65;1.98;;;18.70;45.70;;;;;;5043992;28;20053;-49
2022/05/16 03:25:12;;;;;;;6.28;2.35;;;18.70;45.70;;;;;;5044348;28;20492;-52
2022/05/16 03:27:40;;;;;;;4.47;2.05;;;18.70;46.20;;;;;;5043825;28;20053;-48
2022/05/16 03:30:10;;;;;;;4.88;2.10;;;18.70;45.90;;;;;;5037555;28;20045;-52
2022/05/16 03:32:38;;;;;;;5.63;2.30;;;18.60;45.90;;;;;;5042798;28;20789;-51
2022/05/16 03:35:07;;;;;;;3.95;1.98;;;18.60;45.90;;;;;;5045605;28;20416;-51
2022/05/16 03:37:35;;;;;;;3.53;2.05;;;18.60;46.10;;;;;;5043813;28;21055;-50
2022/05/16 03:42:50;;;;;;;3.45;1.98;;;18.50;46.60;;;;;;5049586;28;20061;-49
2022/05/16 03:45:18;;;;;;;29.13;14.27;;;18.50;46.10;;;;;;5044260;28;20477;-48
2022/05/16 03:47:45;;;;;;;18.15;7.68;;;18.40;46.20;;;;;;5041746;28;20053;-51
2022/05/16 03:50:13;;;;;;;10.02;4.50;;;18.40;46.30;;;;;;5043871;28;20044;-53
2022/05/16 03:52:42;;;;;;;7.13;3.03;;;18.40;46.40;;;;;;5044645;28;20057;-49
2022/05/16 03:55:13;;;;;;;5.68;2.80;;;18.40;46.40;;;;;;5044764;28;20072;-48
2022/05/16 03:57:41;;;;;;;6.28;2.70;;;18.40;46.60;;;;;;5043807;28;20053;-47
2022/05/16 04:00:12;;;;;;;9.40;2.80;;;18.40;46.60;;;;;;5042778;28;20521;-51
2022/05/16 04:02:40;;;;;;;8.93;2.42;;;18.40;46.60;;;;;;5041858;28;20056;-49
2022/05/16 04:05:09;;;;;;;8.45;3.38;;;18.30;46.60;;;;;;5044062;28;20053;-49
2022/05/16 04:07:37;;;;;;;5.50;2.15;;;18.40;46.60;;;;;;5044483;28;20515;-49
2022/05/16 04:10:06;;;;;;;6.13;2.38;;;18.40;46.60;;;;;;5044013;28;20079;-50
2022/05/16 04:12:35;;;;;;;6.00;2.28;;;18.40;46.60;;;;;;5042250;28;20061;-51
2022/05/16 04:15:04;;;;;;;5.03;2.20;;;18.40;46.60;;;;;;5042753;28;20266;-54
2022/05/16 04:17:31;;;;;;;6.78;2.13;;;18.50;46.70;;;;;;5043390;28;20052;-51
2022/05/16 04:19:59;;;;;;;9.73;3.20;;;18.50;46.60;;;;;;5043624;28;20507;-48
2022/05/16 04:22:26;;;;;;;12.30;4.90;;;18.50;46.70;;;;;;5043509;28;20060;-49
2022/05/16 04:24:54;;;;;;;6.60;3.20;;;18.60;46.80;;;;;;5043399;28;20497;-49
2022/05/16 04:27:21;;;;;;;6.72;2.75;;;18.60;46.60;;;;;;5043416;28;20056;-54
2022/05/16 04:29:50;;;;;;;7.60;2.10;;;18.60;46.70;;;;;;5043481;28;20142;-50
2022/05/16 04:32:17;;;;;;;10.20;2.40;;;18.70;46.70;;;;;;5041274;28;20072;-49
2022/05/16 04:34:45;;;;;;;4.53;1.83;;;18.80;46.70;;;;;;5043234;28;20067;-48
2022/05/16 04:37:12;;;;;;;5.50;2.20;;;18.80;46.80;;;;;;5042749;28;20414;-49
2022/05/16 04:39:40;;;;;;;5.22;2.28;;;18.80;46.70;;;;;;5043572;28;20057;-54
2022/05/16 04:44:55;;;;;;;4.47;1.88;;;19.00;46.70;;;;;;5043285;28;20055;-51
2022/05/16 04:47:23;;;;;;;5.50;1.98;;;19.00;46.50;;;;;;5042714;28;20440;-50
2022/05/16 04:49:50;;;;;;;7.03;2.22;;;19.10;46.60;;;;;;5043176;28;20508;-52
2022/05/16 04:52:17;;;;;;;6.25;2.05;;;19.20;46.70;;;;;;5042371;28;20052;-51
2022/05/16 04:54:48;;;;;;;5.35;2.08;;;19.20;46.60;;;;;;5042618;28;20085;-52
2022/05/16 04:57:16;;;;;;;7.65;3.08;;;19.30;46.60;;;;;;5042447;28;20056;-49
2022/05/16 04:59:46;;;;;;;6.20;2.95;;;19.30;46.70;;;;;;5042489;28;20056;-49
2022/05/16 05:02:16;;;;;;;6.22;2.40;;;19.40;46.70;;;;;;5041935;28;20515;-50
2022/05/16 05:04:44;;;;;;;5.38;2.38;;;19.50;46.70;;;;;;5043817;28;20056;-52
2022/05/16 05:07:12;;;;;;;7.55;2.25;;;19.60;46.70;;;;;;5042972;28;20057;-48
2022/05/16 05:15:08;;;;;;;10.65;2.50;;;19.70;46.80;;;;;;5048568;28;20503;-52
2022/05/16 05:17:37;;;;;;;7.32;2.22;;;19.80;47.40;;;;;;5042615;28;20451;-49
2022/05/16 05:20:06;;;;;;;9.05;2.80;;;19.90;46.80;;;;;;5042554;28;20060;-48
2022/05/16 05:22:34;;;;;;;6.68;2.78;;;19.90;46.40;;;;;;5043408;28;20057;-51
2022/05/16 05:25:01;;;;;;;5.85;2.53;;;19.90;46.30;;;;;;5042430;28;20522;-52
2022/05/16 05:27:28;;;;;;;7.80;2.38;;;19.90;46.30;;;;;;5042668;28;20056;-49
2022/05/16 05:29:56;;;;;;;6.43;2.40;;;20.00;46.20;;;;;;5042722;28;20381;-53
2022/05/16 05:32:23;;;;;;;7.75;2.67;;;20.00;46.10;;;;;;5039404;28;20056;-49
2022/05/16 05:34:52;;;;;;;7.15;2.40;;;20.00;46.00;;;;;;5041829;28;20056;-49
2022/05/16 05:37:20;;;;;;;6.60;2.33;;;20.00;45.90;;;;;;5042129;28;20413;-50
2022/05/16 05:39:48;;;;;;;9.77;2.50;;;20.00;45.90;;;;;;5042140;28;20063;-53
2022/05/16 05:42:16;;;;;;;8.02;2.65;;;20.00;45.90;;;;;;5039603;28;20061;-50
2022/05/16 05:44:43;;;;;;;8.20;2.83;;;20.10;46.00;;;;;;5043415;28;20402;-51
2022/05/16 05:47:11;;;;;;;10.63;2.90;;;20.00;45.90;;;;;;5041169;28;20052;-52
2022/05/16 05:49:39;;;;;;;9.48;1.95;;;20.00;46.20;;;;;;5041569;28;20060;-52
2022/05/16 05:52:08;;;;;;;7.70;2.80;;;20.00;46.40;;;;;;5042655;28;20049;-53
2022/05/16 05:54:35;;;;;;;5.47;2.55;;;20.00;46.70;;;;;;5043229;28;20517;-51
2022/05/16 05:57:03;;;;;;;10.93;2.65;;;20.00;46.90;;;;;;5042105;28;20059;-49
2022/05/16 05:59:30;;;;;;;7.85;2.63;;;20.10;47.20;;;;;;5041690;28;20432;-48
2022/05/16 06:01:58;;;;;;;5.90;2.38;;;20.10;47.40;;;;;;5041176;28;20052;-51
2022/05/16 06:04:25;;;;;;;4.55;2.00;;;20.00;47.30;;;;;;5042092;28;20053;-51
2022/05/16 06:06:53;;;;;;;9.20;2.20;;;20.00;47.40;;;;;;5045504;28;20060;-49
2022/05/16 06:09:22;;;;;;;11.90;2.45;;;20.00;47.60;;;;;;5044861;28;20052;-49
2022/05/16 06:11:49;;;;;;;6.85;3.00;;;20.10;47.70;;;;;;5045279;28;20056;-52
2022/05/16 06:14:18;;;;;;;4.38;2.28;;;20.10;47.70;;;;;;5045665;28;20060;-51
2022/05/16 06:16:45;;;;;;;7.28;2.40;;;20.10;47.60;;;;;;5044413;28;20564;-50
2022/05/16 06:19:13;;;;;;;5.35;1.98;;;20.10;47.60;;;;;;5045151;28;20053;-49
2022/05/16 06:21:40;;;;;;;8.70;2.92;;;20.10;47.40;;;;;;5045019;28;20048;-48
2022/05/16 06:25:31;;;;;;;7.35;2.90;;;20.10;47.20;;;;;;5045885;28;20049;-47
2022/05/16 06:26:58;;;;;;;7.32;3.03;;;20.10;47.30;;;;;;5045084;28;20053;-51
2022/05/16 06:29:26;;;;;;;10.18;2.65;;;20.10;47.40;;;;;;5046263;28;20060;-51
2022/05/16 06:31:53;;;;;;;11.20;3.00;;;20.10;47.50;;;;;;5043619;28;20405;-53
2022/05/16 06:34:21;;;;;;;5.53;2.47;;;20.00;47.90;;;;;;5044690;28;20940;-53
2022/05/16 06:36:49;;;;;;;6.82;2.80;;;20.00;48.00;;;;;;5046306;28;20060;-52
2022/05/16 06:39:16;;;;;;;9.23;2.80;;;20.00;47.90;;;;;;5044598;28;20405;-50
2022/05/16 06:41:44;;;;;;;4.72;2.17;;;20.10;48.00;;;;;;5044231;28;20053;-51
2022/05/16 06:44:14;;;;;;;6.28;2.40;;;20.10;47.90;;;;;;5045082;28;20053;-50
2022/05/16 06:46:44;;;;;;;5.68;2.60;;;20.10;48.00;;;;;;5044361;28;20051;-51
2022/05/16 06:49:12;;;;;;;4.65;2.42;;;20.10;48.00;;;;;;5043742;28;20053;-50
2022/05/16 06:51:39;;;;;;;7.35;2.50;;;20.10;47.90;;;;;;5046040;28;21507;-51
2022/05/16 06:54:07;;;;;;;5.20;2.40;;;20.20;47.90;;;;;;5045192;28;20044;-51
2022/05/16 06:56:34;;;;;;;8.68;2.75;;;20.30;47.70;;;;;;5044550;28;21214;-50
2022/05/16 06:59:02;;;;;;;7.05;2.50;;;20.30;47.60;;;;;;5047008;28;20060;-53
2022/05/16 07:01:31;;;;;;;5.32;2.22;;;20.40;47.30;;;;;;5045292;28;20512;-53
2022/05/16 07:03:58;;;;;;;12.93;2.30;;;20.40;47.10;;;;;;5042927;28;20513;-51
2022/05/16 07:06:26;;;;;;;6.60;2.67;;;20.60;47.00;;;;;;5043230;28;20880;-49
2022/05/16 07:08:53;;;;;;;7.70;2.13;;;20.60;47.00;;;;;;5045371;28;20061;-53
2022/05/16 07:11:21;;;;;;;6.20;2.45;;;20.70;46.90;;;;;;5044151;28;20052;-51
2022/05/16 07:13:48;;;;;;;6.72;2.40;;;20.80;46.90;;;;;;5044791;28;20049;-50
2022/05/16 07:16:16;;;;;;;5.13;2.53;;;20.80;46.80;;;;;;5044540;28;20067;-49
2022/05/16 07:18:45;;;;;;;5.43;2.35;;;20.90;46.70;;;;;;5043871;28;20052;-49
2022/05/16 07:21:12;;;;;;;8.10;2.60;;;21.00;46.70;;;;;;5046288;28;20053;-51
2022/05/16 07:23:39;;;;;;;5.65;2.50;;;21.10;46.60;;;;;;5044211;28;20599;-51
2022/05/16 07:28:52;;;;;;;4.68;2.25;;;21.20;46.70;;;;;;5050031;28;20045;-51
2022/05/16 07:31:20;;;;;;;5.25;2.40;;;21.40;46.60;;;;;;5042253;28;20500;-51
2022/05/16 07:33:49;;;;;;;4.57;2.30;;;21.40;46.60;;;;;;5043193;28;20057;-47
2022/05/16 07:36:16;;;;;;;2.25;1.65;;;21.60;46.50;;;;;;5044896;28;20381;-49
2022/05/16 07:38:44;;;;;;;5.80;2.65;;;21.60;46.50;;;;;;5043009;28;20052;-55
2022/05/16 07:41:11;;;;;;;5.68;2.60;;;21.70;46.70;;;;;;5044516;28;20523;-51
2022/05/16 07:43:39;;;;;;;5.13;2.72;;;21.70;46.40;;;;;;5044228;28;20057;-54
2022/05/16 07:46:06;;;;;;;4.43;2.03;;;21.80;46.30;;;;;;5044446;28;20061;-52
2022/05/16 07:48:34;;;;;;;7.38;2.17;;;21.80;46.50;;;;;;5042311;28;20060;-50
2022/05/16 07:51:03;;;;;;;6.45;2.67;;;21.90;46.40;;;;;;5043334;28;20057;-52
2022/05/16 07:53:30;;;;;;;5.13;2.45;;;21.90;46.40;;;;;;5044233;28;20056;-50
2022/05/16 07:55:58;;;;;;;5.50;2.22;;;21.90;46.30;;;;;;5043589;28;20386;-50
2022/05/16 07:58:26;;;;;;;4.93;2.67;;;21.90;46.20;;;;;;5043578;28;20057;-48
2022/05/16 08:00:54;;;;;;;8.20;2.35;;;22.00;46.20;;;;;;5044088;28;20045;-50
2022/05/16 08:03:23;;;;;;;5.57;2.10;;;22.00;46.20;;;;;;5042177;28;20068;-52
2022/05/16 08:05:50;;;;;;;6.57;2.33;;;22.00;46.20;;;;;;5043730;28;20060;-53
2022/05/16 08:11:04;;;;;;;18.67;8.77;;;22.20;46.60;;;;;;5049810;28;20056;-55
2022/05/16 08:13:32;;;;;;;51.67;24.33;;;22.30;46.60;;;;;;5043751;28;20064;-50
2022/05/16 08:16:00;;;;;;;15.57;8.68;;;22.30;46.80;;;;;;5043427;28;20052;-49
2022/05/16 08:18:28;;;;;;;8.65;4.07;;;22.40;46.70;;;;;;5043554;28;20064;-48
2022/05/16 08:20:55;;;;;;;6.03;2.67;;;22.50;46.70;;;;;;5044453;28;20075;-50
2022/05/16 08:23:26;;;;;;;6.10;2.70;;;22.60;46.60;;;;;;5043629;28;20052;-52
2022/05/16 08:25:55;;;;;;;7.43;2.67;;;22.70;46.70;;;;;;5043940;28;20056;-49
2022/05/16 08:28:23;;;;;;;5.38;2.40;;;22.80;46.50;;;;;;5042298;28;20501;-48
2022/05/16 08:30:51;;;;;;;7.28;2.63;;;22.90;46.60;;;;;;5043194;28;20499;-48
2022/05/16 08:33:19;;;;;;;7.55;2.50;;;23.00;46.80;;;;;;5043327;28;20485;-49
2022/05/16 08:39:52;;;;;;;7.25;2.22;;;23.00;46.70;;;;;;5043032;28;20087;-51
2022/05/16 08:41:47;;;;;;;5.80;2.50;;;23.20;46.50;;;;;;4975143;28;20215;-48
2022/05/16 08:44:22;;;;;;;7.20;2.20;;;23.40;46.90;;;;;;5027757;28;20427;-50
2022/05/16 08:47:01;;;;;;;5.60;2.53;;;23.50;47.00;;;;;;5033836;28;20530;-50
2022/05/16 08:49:33;;;;;;;6.97;2.60;;;23.60;47.00;;;;;;5036171;28;20432;-52
2022/05/16 08:52:07;;;;;;;11.57;2.90;;;23.70;46.60;;;;;;5036824;28;20059;-53
2022/05/16 08:54:40;;;;;;;4.90;2.28;;;23.80;46.40;;;;;;5036769;28;20052;-51
2022/05/16 08:57:12;;;;;;;4.55;2.10;;;23.90;46.10;;;;;;5037674;28;20684;-48
2022/05/16 08:59:45;;;;;;;6.68;2.33;;;24.00;45.90;;;;;;5036948;28;20055;-51
2022/05/16 09:02:19;;;;;;;7.23;2.60;;;24.10;45.80;;;;;;5031212;28;20059;-51
2022/05/16 09:04:59;;;;;;;5.38;2.15;;;24.20;46.10;;;;;;5044288;28;20411;-48
2022/05/16 09:07:30;;;;;;;4.47;2.25;;;24.30;45.80;;;;;;5044916;28;20670;-47
2022/05/16 09:10:04;;;;;;;6.45;2.28;;;24.30;45.60;;;;;;5043671;28;20049;-49
2022/05/16 09:12:41;;;;;;;7.75;2.22;;;24.40;45.90;;;;;;5043886;28;20049;-48
2022/05/16 09:15:19;;;;;;;8.90;3.53;;;24.40;45.80;;;;;;5042507;28;20056;-50
2022/05/16 09:18:02;;;;;;;9.85;3.10;;;24.40;45.70;;;;;;5041494;28;20057;-49
2022/05/16 09:20:40;;;;;;;5.78;2.78;;;24.40;45.10;;;;;;5044142;28;20059;-48
2022/05/16 09:23:15;;;;;;;5.97;2.53;;;24.40;45.50;;;;;;5042592;28;20068;-48
2022/05/16 09:25:57;;;;;;;5.05;2.40;;;24.40;45.70;;;;;;5040484;28;20060;-48
2022/05/16 09:28:37;;;;;;;5.10;2.22;;;24.40;45.90;;;;;;5043432;28;20062;-51
2022/05/16 09:31:13;;;;;;;8.13;2.83;;;24.40;45.50;;;;;;5041772;28;20504;-53
2022/05/16 09:33:47;;;;;;;5.97;2.78;;;24.50;46.40;;;;;;5040133;28;20075;-50
2022/05/16 09:36:15;;;;;;;;;;;24.50;45.60;;;;;;5042785;28;20063;-48
2022/05/16 09:38:45;;;;;;;8.82;2.50;;;24.60;45.50;;;;;;5042684;28;19920;-50
2022/05/16 09:41:25;;;;;;;6.82;2.40;;;24.60;46.10;;;;;;5041876;28;20060;-50
2022/05/16 09:43:58;;;;;;;18.50;3.83;;;24.70;45.70;;;;;;5042883;28;20060;-50
2022/05/16 09:46:36;;;;;;;5.77;2.00;;;24.60;45.70;;;;;;5043547;28;20435;-49
2022/05/16 09:49:19;;;;;;;3.72;2.45;;;24.70;45.50;;;;;;5042083;28;20519;-49
2022/05/16 09:51:50;;;;;;;6.85;2.63;;;24.80;46.40;;;;;;5042581;28;20448;-48
2022/05/16 09:54:36;;;;;;;6.80;2.40;;;24.80;46.40;;;;;;5041345;28;20057;-50
2022/05/16 09:57:22;;;;;;;6.45;2.72;;;24.90;46.10;;;;;;5042044;28;20060;-47
2022/05/16 09:59:52;;;;;;;8.15;2.58;;;25.00;46.50;;;;;;5042677;28;20044;-47
2022/05/16 10:02:28;;;;;;;7.78;2.70;;;25.00;45.70;;;;;;5040437;28;20432;-48
2022/05/16 10:04:59;;;;;;;6.47;2.80;;;25.10;45.50;;;;;;5043044;28;20059;-49
2022/05/16 10:07:41;;;;;;;8.25;2.53;;;25.10;44.80;;;;;;5042561;28;20459;-50
2022/05/16 10:10:11;;;;;;;4.95;2.10;;;25.20;44.20;;;;;;5041325;28;20053;-51
2022/05/16 10:12:41;;;;;;;8.15;2.55;;;25.20;44.30;;;;;;5040786;28;20053;-48
2022/05/16 10:15:11;;;;;;;8.45;2.40;;;25.30;44.80;;;;;;5041429;28;20501;-47
2022/05/16 10:17:40;;;;;;;6.45;2.00;;;25.30;44.60;;;;;;5040517;28;20060;-49
2022/05/16 10:20:12;;;;;;;6.60;2.33;;;25.40;44.70;;;;;;5041767;28;20056;-51
2022/05/16 10:22:39;;;;;;;7.35;2.53;;;25.40;44.60;;;;;;5041751;28;20056;-50
2022/05/16 10:25:11;;;;;;;7.72;2.20;;;25.40;44.50;;;;;;5041617;28;20060;-50
2022/05/16 10:27:42;;;;;;;4.95;2.22;;;25.50;44.00;;;;;;5041944;28;20045;-50
2022/05/16 10:30:15;;;;;;;4.88;2.15;;;25.60;43.30;;;;;;5041681;28;20072;-50
2022/05/16 10:35:33;;;;;;;6.50;1.70;;;25.70;43.70;;;;;;5048005;28;20063;-51
2022/05/16 10:38:04;;;;;;;5.32;2.08;;;25.80;43.30;;;;;;5042890;28;20049;-52
2022/05/16 10:40:35;;;;;;;4.30;1.88;;;25.80;43.00;;;;;;5041628;28;20053;-49
2022/05/16 10:43:16;;;;;;;6.13;1.95;;;25.90;41.60;;;;;;5043042;28;20060;-47
2022/05/16 10:45:48;;;;;;;5.38;2.20;;;26.00;42.10;;;;;;5041635;28;20525;-49
2022/05/16 10:48:24;;;;;;;7.63;2.47;;;26.00;41.40;;;;;;5040384;28;20064;-47
2022/05/16 10:50:58;;;;;;;3.50;1.90;;;26.00;41.00;;;;;;5042938;28;20056;-48
2022/05/16 10:53:29;;;;;;;6.38;2.40;;;26.00;41.60;;;;;;5045501;28;20056;-49
2022/05/16 10:56:07;;;;;;;4.18;1.90;;;26.00;41.60;;;;;;5046699;28;20057;-47
2022/05/16 10:58:48;;;;;;;4.28;2.00;;;26.10;42.00;;;;;;5046156;28;20045;-48
2022/05/16 11:01:22;;;;;;;5.30;2.20;;;26.10;42.20;;;;;;5047996;28;20053;-49
2022/05/16 11:04:13;;;;;;;5.68;1.75;;;26.20;41.40;;;;;;5045865;28;20098;-49
2022/05/16 11:06:58;;;;;;;3.20;1.40;;;26.20;40.60;;;;;;5045099;28;20063;-49
2022/05/16 11:09:29;;;;;;;;;;;26.20;40.20;;;;;;5044911;28;20079;-48
2022/05/16 11:12:04;;;;;;;3.20;1.60;;;26.30;41.10;;;;;;5045145;28;19935;-48
2022/05/16 11:14:39;;;;;;;4.82;1.83;;;26.50;40.00;;;;;;5045121;28;20428;-48
2022/05/16 11:17:23;;;;;;;3.78;1.85;;;26.60;40.50;;;;;;5043487;28;20052;-49
2022/05/16 11:19:57;;;;;;;4.05;1.60;;;26.70;41.00;;;;;;5045179;28;20049;-52
2022/05/16 11:22:31;;;;;;;3.13;1.73;;;26.80;41.20;;;;;;5044342;28;20056;-50
2022/05/16 11:25:09;;;;;;;3.90;1.70;;;26.90;41.00;;;;;;5045834;28;20056;-48
2022/05/16 11:27:46;;;;;;;5.43;1.92;;;27.00;40.60;;;;;;5045272;28;20055;-47
2022/05/16 11:30:20;;;;;;;5.30;2.00;;;27.10;39.60;;;;;;5046416;28;20056;-50
2022/05/16 11:32:57;;;;;;;;;;;27.20;39.40;;;;;;5044192;28;20049;-47
2022/05/16 11:35:29;;;;;;;2.38;1.30;;;27.20;40.10;;;;;;5045352;28;19932;-50
2022/05/16 11:38:19;;;;;;;3.05;1.45;;;27.30;39.90;;;;;;5044586;28;20065;-50
2022/05/16 11:40:52;;;;;;;3.40;1.92;;;27.40;39.70;;;;;;5045098;28;20060;-51
2022/05/16 11:43:25;;;;;;;7.00;2.08;;;27.50;38.60;;;;;;5045187;28;20083;-52
2022/05/16 11:46:21;;;;;;;3.50;1.60;;;27.50;38.60;;;;;;5044883;28;20055;-48
2022/05/16 11:49:05;;;;;;;6.53;1.80;;;27.50;39.10;;;;;;5044561;28;20056;-47
2022/05/16 11:51:54;;;;;;;3.65;1.55;;;27.60;38.90;;;;;;5044023;28;20060;-48
2022/05/16 11:54:25;;;;;;;5.78;2.00;;;27.60;39.00;;;;;;5043775;28;20052;-51
2022/05/16 12:02:51;;;;;;;3.22;1.50;;;27.60;39.60;;;;;;5048161;28;20060;-47
2022/05/16 12:05:34;;;;;;;5.03;1.85;;;27.50;39.70;;;;;;5043955;28;20063;-48
2022/05/16 12:08:04;;;;;;;3.63;1.98;;;27.40;40.10;;;;;;5043276;28;20064;-48
2022/05/16 12:10:33;;;;;;;4.25;1.85;;;27.30;40.50;;;;;;5043586;28;20057;-50
2022/05/16 12:13:18;;;;;;;6.28;2.25;;;27.20;41.30;;;;;;5043139;28;20056;-51
2022/05/16 12:15:46;;;;;;;4.70;1.98;;;27.00;42.10;;;;;;5043589;28;20736;-48
2022/05/16 12:18:40;;;;;;;5.80;2.40;;;26.80;42.40;;;;;;5042761;28;20053;-47
2022/05/16 12:21:12;;;;;;;8.52;2.70;;;26.70;43.30;;;;;;5042454;28;20056;-48
2022/05/16 12:23:58;;;;;;;6.07;2.35;;;26.50;44.10;;;;;;5043838;28;20497;-48
2022/05/16 12:26:57;;;;;;;5.60;2.60;;;26.20;45.10;;;;;;5044584;28;20492;-49
2022/05/16 12:29:31;;;;;;;6.97;2.35;;;26.10;45.80;;;;;;5035913;28;20045;-46
2022/05/16 12:32:00;;;;;;;7.30;2.90;;;25.90;46.10;;;;;;5045136;28;20425;-48
2022/05/16 12:34:50;;;;;;;8.02;3.17;;;25.60;46.20;;;;;;5044677;28;20408;-48
2022/05/16 12:37:20;;;;;;;8.75;2.42;;;25.40;46.80;;;;;;5041804;28;20053;-48
2022/05/16 12:40:05;;;;;;;7.85;2.53;;;25.20;46.80;;;;;;5043368;28;20056;-51
2022/05/16 12:42:58;;;;;;;6.32;2.67;;;25.10;47.90;;;;;;5043235;28;20056;-47
2022/05/16 12:45:46;;;;;;;9.80;3.25;;;24.90;48.10;;;;;;5043028;28;20060;-47
2022/05/16 12:48:45;;;;;;;5.35;2.80;;;24.70;48.80;;;;;;5043575;28;20052;-49
2022/05/16 12:51:27;;;;;;;7.30;3.10;;;24.60;49.30;;;;;;5027563;28;20501;-51
2022/05/16 12:54:45;;;;;;;8.93;3.20;;;24.40;49.90;;;;;;5042615;28;20049;-48
2022/05/16 12:57:48;;;;;;;8.40;2.67;;;24.30;50.10;;;;;;5042643;28;20990;-50
2022/05/16 13:00:20;;;;;;;7.20;3.00;;;24.20;50.40;;;;;;5000615;28;20501;-48
2022/05/16 13:02:55;;;;;;;4.63;2.55;;;24.10;50.60;;;;;;5041546;28;20057;-48
2022/05/16 13:05:35;;;;;;;13.35;3.30;;;23.90;50.90;;;;;;5041739;28;20408;-49
2022/05/16 13:08:17;;;;;;;8.15;3.40;;;23.80;51.50;;;;;;5042419;28;20052;-49
2022/05/16 13:10:52;;;;;;;7.15;3.03;;;23.70;51.90;;;;;;5043197;28;20060;-50
2022/05/16 13:13:42;;;;;;;6.28;2.75;;;23.60;52.00;;;;;;5042266;28;20063;-47
2022/05/16 13:16:18;;;;;;;7.30;3.10;;;23.50;52.30;;;;;;5043133;28;20508;-51
2022/05/16 13:18:53;;;;;;;8.30;2.78;;;23.40;52.40;;;;;;5041073;28;20428;-51
2022/05/16 13:21:22;;;;;;;8.73;2.72;;;23.40;52.40;;;;;;5042261;28;20071;-50
2022/05/16 13:23:51;;;;;;;6.57;3.03;;;23.30;52.70;;;;;;5042198;28;20408;-48
2022/05/16 13:29:22;;;;;;;11.90;3.10;;;23.10;53.10;;;;;;5049200;28;20131;-51
2022/05/16 13:31:52;;;;;;;8.68;3.30;;;23.00;53.40;;;;;;5040665;28;20055;-46
2022/05/16 13:34:31;;;;;;;7.57;3.25;;;23.00;53.90;;;;;;5040442;28;20057;-47
2022/05/16 13:36:59;;;;;;;8.55;3.38;;;22.90;54.40;;;;;;5042377;28;20567;-52
2022/05/16 13:39:28;;;;;;;7.95;3.20;;;22.80;54.20;;;;;;5043289;28;20064;-48
2022/05/16 13:41:57;;;;;;;6.90;2.95;;;22.80;54.40;;;;;;5042067;28;20988;-48
2022/05/16 13:44:25;;;;;;;12.32;3.70;;;22.60;55.00;;;;;;5041802;28;20053;-46
2022/05/16 13:46:54;;;;;;;16.90;4.75;;;22.50;56.30;;;;;;5041405;28;21709;-47